Terminal Aerodrome Forecast
Issued by NWS

Home | Current Version | Previous Version | Text Only | Print | Product List | Glossary On
Versions: 1 2 3 4 5 6 7 8 9 10 11 12 13 14 15 16 17 18 19 20 21 22 23 24 25
853
FTUS43 KGRR 252357
TAFLAN
TAF
KLAN 252357Z 2600/2624 27010G18KT 6SM -SN OVC035
      TEMPO 2600/2602 5SM -SN BR OVC025
     FM260400 26009KT P6SM BKN040
     FM260900 23007KT P6SM BKN040
     FM261600 21015G27KT P6SM BKN050=

USA.gov is the U.S. government's official web portal to all federal, state and local government web resources and services.